createdAt,value
2023-12-29T00:01:41.499Z,3.70
2023-12-29T00:04:29.019Z,3.60
2023-12-29T00:07:19.639Z,3.60
2023-12-29T00:10:09.657Z,3.60
2023-12-29T00:12:57.259Z,3.60
2023-12-29T00:15:44.742Z,3.70
2023-12-29T00:18:32.359Z,3.70
2023-12-29T00:21:20.825Z,3.80
2023-12-29T00:24:08.831Z,3.90
2023-12-29T00:26:56.337Z,4.00
2023-12-29T00:29:44.193Z,4.10
2023-12-29T00:32:31.726Z,4.20
2023-12-29T00:35:19.190Z,4.20
2023-12-29T00:38:07.483Z,4.30
2023-12-29T00:40:55.524Z,4.20
2023-12-29T00:43:43.129Z,4.10
2023-12-29T00:46:31.803Z,4.10
2023-12-29T00:49:19.529Z,4.00
2023-12-29T00:52:07.321Z,4.00
2023-12-29T00:54:54.894Z,4.00
2023-12-29T00:57:42.398Z,4.10
2023-12-29T01:00:29.866Z,4.10
2023-12-29T01:03:17.590Z,4.00
2023-12-29T01:06:05.370Z,4.00
2023-12-29T01:08:52.833Z,3.90
2023-12-29T01:11:40.246Z,3.90
2023-12-29T01:14:27.760Z,3.90
2023-12-29T01:17:15.286Z,3.90
2023-12-29T01:20:04.723Z,3.90
2023-12-29T01:22:52.176Z,3.90
2023-12-29T01:25:39.672Z,3.90
2023-12-29T01:28:27.185Z,4.00
2023-12-29T01:31:15.080Z,4.10
2023-12-29T01:34:02.729Z,4.20
2023-12-29T01:36:50.216Z,4.30
2023-12-29T01:39:38.002Z,4.40
2023-12-29T01:42:25.497Z,4.40
2023-12-29T01:45:27.270Z,4.50
2023-12-29T01:48:15.155Z,4.50
2023-12-29T01:51:02.927Z,4.70
2023-12-29T01:53:51.950Z,4.80
2023-12-29T01:56:40.133Z,4.80
2023-12-29T01:59:29.140Z,4.70
2023-12-29T02:02:17.449Z,4.70
2023-12-29T02:05:05.478Z,4.70
2023-12-29T02:07:54.821Z,4.70
2023-12-29T02:10:42.342Z,4.60
2023-12-29T02:13:29.844Z,4.70
2023-12-29T02:16:50.307Z,4.70
2023-12-29T02:19:51.225Z,4.80
2023-12-29T02:22:39.037Z,4.80
2023-12-29T02:25:26.822Z,4.80
2023-12-29T02:28:26.496Z,4.80
2023-12-29T02:31:23.882Z,4.80
2023-12-29T02:34:15.040Z,4.80
2023-12-29T02:37:03.865Z,4.90
2023-12-29T02:39:51.707Z,4.90
2023-12-29T02:42:39.297Z,4.90
2023-12-29T02:45:27.005Z,4.80
2023-12-29T02:48:14.650Z,4.80
2023-12-29T02:51:02.112Z,4.80
2023-12-29T02:53:50.173Z,4.70
2023-12-29T02:56:37.601Z,4.70
2023-12-29T02:59:25.078Z,4.70
2023-12-29T03:02:12.559Z,4.70
2023-12-29T03:05:00.849Z,4.60
2023-12-29T03:07:48.396Z,4.50
2023-12-29T03:10:35.776Z,4.50
2023-12-29T03:13:23.177Z,4.50
2023-12-29T03:16:10.663Z,4.50
2023-12-29T03:18:58.230Z,4.50
2023-12-29T03:21:45.770Z,4.60
2023-12-29T03:24:33.323Z,4.60
2023-12-29T03:27:20.824Z,4.60
2023-12-29T03:30:09.131Z,4.60
2023-12-29T03:32:56.820Z,4.60
2023-12-29T03:35:44.299Z,4.60
2023-12-29T03:38:33.307Z,4.50
2023-12-29T03:41:20.848Z,4.60
2023-12-29T03:44:08.334Z,4.60
2023-12-29T03:46:55.883Z,4.60
2023-12-29T03:49:43.299Z,4.70
2023-12-29T03:52:30.820Z,4.70
2023-12-29T03:55:18.350Z,4.70
2023-12-29T03:58:05.919Z,4.80
2023-12-29T04:00:53.570Z,4.80
2023-12-29T04:03:42.289Z,4.80
2023-12-29T04:06:29.950Z,4.80
2023-12-29T04:09:17.444Z,4.80
2023-12-29T04:12:05.166Z,4.80
2023-12-29T04:14:52.592Z,4.80
2023-12-29T04:17:40.095Z,4.80
2023-12-29T04:20:27.780Z,4.90
2023-12-29T04:23:15.385Z,4.80
2023-12-29T04:26:02.835Z,4.80
2023-12-29T04:28:50.292Z,4.90
2023-12-29T04:31:37.760Z,4.90
2023-12-29T04:34:25.203Z,4.90
2023-12-29T04:37:13.334Z,4.90
2023-12-29T04:40:00.726Z,4.90
2023-12-29T04:42:48.224Z,4.80
2023-12-29T04:45:35.662Z,4.80
2023-12-29T04:48:23.163Z,4.80
2023-12-29T04:51:10.553Z,4.70
2023-12-29T04:53:58.009Z,4.70
2023-12-29T04:56:45.406Z,4.70
2023-12-29T04:59:32.813Z,4.70
2023-12-29T05:02:21.015Z,4.60
2023-12-29T05:05:11.608Z,4.60
2023-12-29T05:07:59.236Z,4.60
2023-12-29T05:10:47.092Z,4.60
2023-12-29T05:13:34.617Z,4.70
2023-12-29T05:16:22.091Z,4.70
2023-12-29T05:19:09.780Z,4.80
2023-12-29T05:21:57.341Z,4.80
2023-12-29T05:24:46.514Z,4.70
2023-12-29T05:27:35.927Z,4.80
2023-12-29T05:30:23.550Z,4.70
2023-12-29T05:33:11.156Z,4.60
2023-12-29T05:35:59.598Z,4.50
2023-12-29T05:38:48.225Z,4.50
2023-12-29T05:41:35.669Z,4.50
2023-12-29T05:44:23.230Z,4.50
2023-12-29T05:47:11.241Z,4.50
2023-12-29T05:49:59.036Z,4.50
2023-12-29T05:52:50.873Z,4.60
2023-12-29T05:55:38.365Z,4.60
2023-12-29T05:58:25.838Z,4.50
2023-12-29T06:01:13.515Z,4.50
2023-12-29T06:04:01.125Z,4.50
2023-12-29T06:06:48.706Z,4.50
2023-12-29T06:09:37.136Z,4.50
2023-12-29T06:12:24.644Z,4.60
2023-12-29T06:15:17.314Z,4.60
2023-12-29T06:18:06.390Z,4.60
2023-12-29T06:20:54.552Z,4.60
2023-12-29T06:23:42.081Z,4.70
2023-12-29T06:26:29.507Z,4.70
2023-12-29T06:29:17.002Z,4.80
2023-12-29T06:32:05.508Z,4.80
2023-12-29T06:34:53.231Z,4.80
2023-12-29T06:37:42.235Z,4.80
2023-12-29T06:40:29.812Z,4.80
2023-12-29T06:43:17.697Z,4.90
2023-12-29T06:46:05.777Z,4.90
2023-12-29T06:48:53.330Z,4.90
2023-12-29T06:51:42.418Z,4.90
2023-12-29T06:54:29.938Z,4.90
2023-12-29T06:57:17.958Z,4.90
2023-12-29T07:00:06.153Z,4.90
2023-12-29T07:02:53.659Z,4.90
2023-12-29T07:05:41.333Z,4.90
2023-12-29T07:08:29.366Z,4.90
2023-12-29T07:11:16.841Z,5.00
2023-12-29T07:14:04.631Z,5.00
2023-12-29T07:16:52.097Z,5.10
2023-12-29T07:19:39.662Z,5.10
2023-12-29T07:22:27.253Z,5.20
2023-12-29T07:25:15.530Z,5.20
2023-12-29T07:28:03.525Z,5.30
2023-12-29T07:30:51.118Z,5.30
2023-12-29T07:33:38.788Z,5.30
2023-12-29T07:36:26.398Z,5.30
2023-12-29T07:39:13.861Z,5.30
2023-12-29T07:42:03.225Z,5.20
2023-12-29T07:44:52.605Z,5.20
2023-12-29T07:47:40.182Z,5.10
2023-12-29T07:50:27.704Z,5.00
2023-12-29T07:53:15.330Z,5.00
2023-12-29T07:56:03.685Z,5.00
2023-12-29T07:58:51.162Z,5.10
2023-12-29T08:01:39.511Z,5.10
2023-12-29T08:04:26.958Z,5.10
2023-12-29T08:07:14.464Z,5.10
2023-12-29T08:10:02.374Z,5.10
2023-12-29T08:12:49.964Z,5.20
2023-12-29T08:15:38.461Z,5.20
2023-12-29T08:18:25.905Z,5.40
2023-12-29T08:21:21.216Z,5.40
2023-12-29T08:24:08.888Z,5.40
2023-12-29T08:26:56.442Z,5.40
2023-12-29T08:29:43.830Z,5.50
2023-12-29T08:32:31.325Z,5.50
2023-12-29T08:35:18.773Z,5.40
2023-12-29T08:38:06.290Z,5.40
2023-12-29T08:40:54.124Z,5.50
2023-12-29T08:43:41.620Z,5.60
2023-12-29T08:46:30.827Z,5.60
2023-12-29T08:49:18.503Z,5.70
2023-12-29T08:52:06.349Z,5.70
2023-12-29T08:54:53.899Z,5.50
2023-12-29T08:57:41.493Z,5.50
2023-12-29T09:00:31.471Z,5.40
2023-12-29T09:03:18.958Z,5.40
2023-12-29T09:06:07.053Z,5.30
2023-12-29T09:08:54.495Z,5.40
2023-12-29T09:11:43.691Z,5.60
2023-12-29T09:14:33.771Z,5.80
2023-12-29T09:17:21.489Z,5.90
2023-12-29T09:20:11.454Z,6.20
2023-12-29T09:22:59.619Z,6.40
2023-12-29T09:25:47.439Z,6.50
2023-12-29T09:28:35.557Z,6.60
2023-12-29T09:31:23.139Z,6.60
2023-12-29T09:34:10.917Z,6.60
2023-12-29T09:36:58.731Z,6.60
2023-12-29T09:39:46.406Z,6.60
2023-12-29T09:42:36.954Z,6.60
2023-12-29T09:45:28.535Z,6.60
2023-12-29T09:48:20.678Z,6.60
2023-12-29T09:51:11.353Z,6.60
2023-12-29T09:54:00.330Z,6.70
2023-12-29T09:56:50.338Z,6.70
2023-12-29T09:59:39.390Z,6.80
2023-12-29T10:02:27.071Z,6.80
2023-12-29T10:05:14.724Z,6.80
2023-12-29T10:08:06.711Z,6.80
2023-12-29T10:11:00.288Z,6.80
2023-12-29T10:13:54.148Z,6.90
2023-12-29T10:16:46.951Z,6.90
2023-12-29T10:19:57.536Z,7.00
2023-12-29T10:23:00.850Z,7.00
2023-12-29T10:25:50.890Z,7.00
2023-12-29T10:28:38.401Z,7.00
2023-12-29T10:31:26.025Z,7.10
2023-12-29T10:34:35.342Z,7.10
2023-12-29T10:37:25.852Z,7.20
2023-12-29T10:40:22.639Z,7.30
2023-12-29T10:43:11.003Z,7.40
2023-12-29T10:46:10.059Z,7.50
2023-12-29T10:49:19.575Z,7.50
2023-12-29T10:52:17.586Z,7.50
2023-12-29T10:55:10.112Z,7.50
2023-12-29T10:58:02.300Z,7.70
2023-12-29T11:00:49.925Z,7.70
2023-12-29T11:03:37.547Z,7.80
2023-12-29T11:06:25.097Z,7.80
2023-12-29T11:09:13.025Z,7.90
2023-12-29T11:12:05.834Z,8.00
2023-12-29T11:14:53.986Z,8.00
2023-12-29T11:17:52.942Z,8.10
2023-12-29T11:20:40.702Z,8.20
2023-12-29T11:23:28.205Z,8.20
2023-12-29T11:26:16.605Z,8.20
2023-12-29T11:29:05.732Z,8.20
2023-12-29T11:31:56.481Z,8.30
2023-12-29T11:34:49.916Z,8.40
2023-12-29T11:38:13.561Z,8.40
2023-12-29T11:41:27.413Z,8.40
2023-12-29T11:44:26.907Z,8.40
2023-12-29T11:47:36.934Z,8.50
2023-12-29T11:50:33.156Z,8.70
2023-12-29T11:53:46.685Z,8.80
2023-12-29T11:56:45.044Z,8.90
2023-12-29T11:59:33.221Z,9.00
2023-12-29T12:02:30.256Z,9.10
2023-12-29T12:05:47.102Z,9.10
2023-12-29T12:08:37.110Z,9.10
2023-12-29T12:11:30.698Z,9.10
2023-12-29T12:14:45.977Z,9.00
2023-12-29T12:17:34.334Z,8.90
2023-12-29T12:20:21.936Z,8.70
2023-12-29T12:23:18.666Z,8.60
2023-12-29T12:26:07.501Z,8.40
2023-12-29T12:28:55.358Z,8.20
2023-12-29T12:31:58.705Z,8.20
2023-12-29T12:37:33.949Z,8.20
2023-12-29T12:40:29.000Z,8.20
2023-12-29T12:43:17.408Z,8.20
2023-12-29T12:46:05.742Z,8.20
2023-12-29T12:48:56.578Z,8.20
2023-12-29T12:51:44.467Z,8.20
2023-12-29T12:54:34.718Z,8.20
2023-12-29T12:57:23.066Z,8.20
2023-12-29T13:00:10.855Z,8.10
2023-12-29T13:02:58.945Z,8.10
2023-12-29T13:05:46.611Z,8.10
2023-12-29T13:08:38.308Z,8.10
2023-12-29T13:11:30.493Z,8.10
2023-12-29T13:14:24.249Z,8.00
2023-12-29T13:17:14.432Z,8.10
2023-12-29T13:20:01.954Z,8.10
2023-12-29T13:22:52.511Z,8.10
2023-12-29T13:25:41.586Z,8.10
2023-12-29T13:28:30.833Z,8.10
2023-12-29T13:31:18.531Z,8.10
2023-12-29T13:34:14.276Z,8.10
2023-12-29T13:37:04.905Z,8.20
2023-12-29T13:40:10.510Z,8.20
2023-12-29T13:43:02.644Z,8.20
2023-12-29T13:45:50.820Z,8.20
2023-12-29T13:48:39.293Z,8.20
2023-12-29T13:51:27.073Z,8.10
2023-12-29T13:54:14.630Z,8.10
2023-12-29T13:57:01.918Z,8.10
2023-12-29T13:59:50.459Z,8.00
2023-12-29T14:02:37.853Z,7.90
2023-12-29T14:05:29.279Z,7.80
2023-12-29T14:08:26.621Z,7.70
2023-12-29T14:11:14.548Z,7.70
2023-12-29T14:14:01.973Z,7.70
2023-12-29T14:16:49.316Z,7.60
2023-12-29T14:19:38.208Z,7.60
2023-12-29T14:22:25.781Z,7.50
2023-12-29T14:25:13.791Z,7.50
2023-12-29T14:28:01.758Z,7.50
2023-12-29T14:30:49.430Z,7.50
2023-12-29T14:33:37.877Z,7.30
2023-12-29T14:36:25.389Z,7.20
2023-12-29T14:39:13.014Z,7.20
2023-12-29T14:42:00.673Z,7.00
2023-12-29T14:44:49.302Z,7.00
2023-12-29T14:47:37.623Z,7.00
2023-12-29T14:50:25.389Z,7.10
2023-12-29T14:53:13.132Z,7.10
2023-12-29T14:56:01.203Z,7.20
2023-12-29T14:58:48.483Z,7.20
2023-12-29T15:01:36.201Z,7.10
2023-12-29T15:04:23.748Z,7.10
2023-12-29T15:07:11.219Z,7.10
2023-12-29T15:09:59.016Z,7.00
2023-12-29T15:12:46.494Z,7.00
2023-12-29T15:15:35.411Z,6.90
2023-12-29T15:18:24.708Z,6.90
2023-12-29T15:21:12.382Z,6.90
2023-12-29T15:23:59.819Z,6.80
2023-12-29T15:26:47.506Z,6.80
2023-12-29T15:29:34.912Z,6.80
2023-12-29T15:32:22.671Z,6.80
2023-12-29T15:35:10.230Z,6.70
2023-12-29T15:37:59.487Z,6.70
2023-12-29T15:40:46.843Z,6.60
2023-12-29T15:43:34.310Z,6.60
2023-12-29T15:46:24.790Z,6.50
2023-12-29T15:49:12.498Z,6.40
2023-12-29T15:52:00.019Z,6.30
2023-12-29T15:54:47.598Z,6.20
2023-12-29T15:57:35.895Z,6.20
2023-12-29T16:00:24.541Z,6.30
2023-12-29T16:03:12.068Z,6.20
2023-12-29T16:06:02.300Z,6.30
2023-12-29T16:08:53.387Z,6.20
2023-12-29T16:11:40.866Z,6.20
2023-12-29T16:14:29.434Z,6.30
2023-12-29T16:17:17.044Z,6.40
2023-12-29T16:20:05.113Z,6.40
2023-12-29T16:22:53.234Z,6.40
2023-12-29T16:25:41.116Z,6.40
2023-12-29T16:28:28.566Z,6.50
2023-12-29T16:31:16.296Z,6.50
2023-12-29T16:34:04.014Z,6.50
2023-12-29T16:37:00.768Z,6.40
2023-12-29T16:39:48.388Z,6.40
2023-12-29T16:42:36.092Z,6.40
2023-12-29T16:45:23.597Z,6.40
2023-12-29T16:48:11.035Z,6.40
2023-12-29T16:50:58.648Z,6.40
2023-12-29T16:53:46.139Z,6.50
2023-12-29T16:56:33.643Z,6.40
2023-12-29T16:59:21.392Z,6.40
2023-12-29T17:02:09.748Z,6.40
2023-12-29T17:04:57.467Z,6.30
2023-12-29T17:07:44.941Z,6.30
2023-12-29T17:10:32.859Z,6.10
2023-12-29T17:13:20.385Z,6.10
2023-12-29T17:16:08.125Z,6.00
2023-12-29T17:18:55.782Z,6.00
2023-12-29T17:21:43.296Z,6.00
2023-12-29T17:24:32.690Z,6.00
2023-12-29T17:27:20.626Z,6.00
2023-12-29T17:30:08.893Z,6.10
2023-12-29T17:32:56.453Z,6.20
2023-12-29T17:35:44.042Z,6.30
2023-12-29T17:38:31.507Z,6.40
2023-12-29T17:41:19.231Z,6.40
2023-12-29T17:44:06.674Z,6.40
2023-12-29T17:46:57.259Z,6.40
2023-12-29T17:49:44.947Z,6.40
2023-12-29T17:52:32.454Z,6.40
2023-12-29T17:55:19.932Z,6.40
2023-12-29T17:58:07.482Z,6.30
2023-12-29T18:00:55.116Z,6.30
2023-12-29T18:03:43.034Z,6.30
2023-12-29T18:06:30.818Z,6.30
2023-12-29T18:09:18.795Z,6.20
2023-12-29T18:12:07.034Z,6.20
2023-12-29T18:14:55.856Z,6.10
2023-12-29T18:17:44.605Z,6.10
2023-12-29T18:20:32.993Z,6.10
2023-12-29T18:23:21.868Z,6.10
2023-12-29T18:26:09.393Z,6.00
2023-12-29T18:28:56.768Z,6.00
2023-12-29T18:31:44.449Z,6.00
2023-12-29T18:34:32.035Z,6.00
2023-12-29T18:37:22.156Z,5.90
2023-12-29T18:40:10.729Z,5.90
2023-12-29T18:42:59.054Z,5.90
2023-12-29T18:45:46.506Z,5.80
2023-12-29T18:48:34.908Z,5.80
2023-12-29T18:51:22.458Z,5.80
2023-12-29T18:54:13.480Z,5.80
2023-12-29T18:57:02.601Z,5.70
2023-12-29T18:59:50.361Z,5.70
2023-12-29T19:02:37.912Z,5.70
2023-12-29T19:05:25.641Z,5.70
2023-12-29T19:08:13.159Z,5.60
2023-12-29T19:11:00.670Z,5.60
2023-12-29T19:13:48.205Z,5.70
2023-12-29T19:16:37.259Z,5.60
2023-12-29T19:19:25.041Z,5.60
2023-12-29T19:22:12.924Z,5.60
2023-12-29T19:25:00.624Z,5.60
2023-12-29T19:27:48.219Z,5.60
2023-12-29T19:30:35.657Z,5.50
2023-12-29T19:33:23.968Z,5.50
2023-12-29T19:36:17.356Z,5.50
2023-12-29T19:39:06.216Z,5.40
2023-12-29T19:41:54.522Z,5.40
2023-12-29T19:44:42.374Z,5.40
2023-12-29T19:47:29.777Z,5.40
2023-12-29T19:50:17.323Z,5.40
2023-12-29T19:53:05.009Z,5.40
2023-12-29T19:55:53.857Z,5.30
2023-12-29T19:58:41.330Z,5.30
2023-12-29T20:01:33.510Z,5.30
2023-12-29T20:04:26.173Z,5.30
2023-12-29T20:07:18.255Z,5.30
2023-12-29T20:10:06.533Z,5.30
2023-12-29T20:12:54.241Z,5.30
2023-12-29T20:15:42.283Z,5.30
2023-12-29T20:18:29.914Z,5.20
2023-12-29T20:21:24.283Z,5.20
2023-12-29T20:24:11.829Z,5.20
2023-12-29T20:26:59.492Z,5.20
2023-12-29T20:29:46.914Z,5.20
2023-12-29T20:32:34.435Z,5.10
2023-12-29T20:35:22.437Z,5.10
2023-12-29T20:38:09.863Z,5.10
2023-12-29T20:40:57.318Z,5.10
2023-12-29T20:43:48.654Z,5.10
2023-12-29T20:46:36.306Z,5.10
2023-12-29T20:49:24.219Z,5.10
2023-12-29T20:52:11.762Z,5.10
2023-12-29T20:54:59.285Z,5.10
2023-12-29T20:57:46.852Z,5.10
2023-12-29T21:00:34.502Z,5.00
2023-12-29T21:03:22.254Z,5.00
2023-12-29T21:06:09.878Z,4.90
2023-12-29T21:08:59.839Z,5.00
2023-12-29T21:11:47.341Z,4.90
2023-12-29T21:14:34.754Z,4.90
2023-12-29T21:17:22.219Z,4.90
2023-12-29T21:20:12.280Z,4.90
2023-12-29T21:22:59.899Z,4.90
2023-12-29T21:25:47.483Z,4.90
2023-12-29T21:28:34.938Z,4.90
2023-12-29T21:31:22.801Z,4.90
2023-12-29T21:34:10.601Z,4.90
2023-12-29T21:36:59.228Z,4.90
2023-12-29T21:39:46.672Z,4.90
2023-12-29T21:42:37.881Z,4.90
2023-12-29T21:45:25.395Z,4.90
2023-12-29T21:48:17.699Z,4.90
2023-12-29T21:51:07.314Z,4.80
2023-12-29T21:53:54.973Z,4.90
2023-12-29T21:56:42.464Z,4.80
2023-12-29T21:59:30.022Z,4.80
2023-12-29T22:02:17.527Z,4.80
2023-12-29T22:05:05.795Z,4.80
2023-12-29T22:07:53.346Z,4.70
2023-12-29T22:10:42.504Z,4.70
2023-12-29T22:13:30.711Z,4.70
2023-12-29T22:16:18.122Z,4.70
2023-12-29T22:19:07.046Z,4.60
2023-12-29T22:21:54.691Z,4.60
2023-12-29T22:24:42.078Z,4.60
2023-12-29T22:27:29.471Z,4.50
2023-12-29T22:30:17.241Z,4.60
2023-12-29T22:33:05.159Z,4.50
2023-12-29T22:35:52.632Z,4.50
2023-12-29T22:38:41.330Z,4.50
2023-12-29T22:41:28.737Z,4.50
2023-12-29T22:44:16.162Z,4.50
2023-12-29T22:47:04.184Z,4.50
2023-12-29T22:49:51.586Z,4.50
2023-12-29T22:52:39.053Z,4.40
2023-12-29T22:55:27.724Z,4.40
2023-12-29T22:58:15.281Z,4.40
2023-12-29T23:01:02.827Z,4.40
2023-12-29T23:03:50.591Z,4.50
2023-12-29T23:06:38.104Z,4.50
2023-12-29T23:09:26.232Z,4.50
2023-12-29T23:12:15.319Z,4.50
2023-12-29T23:15:03.222Z,4.50
2023-12-29T23:17:52.487Z,4.50
2023-12-29T23:20:40.041Z,4.50
2023-12-29T23:23:27.542Z,4.60
2023-12-29T23:26:15.143Z,4.60
2023-12-29T23:29:03.041Z,4.60
2023-12-29T23:31:50.779Z,4.60
2023-12-29T23:34:41.462Z,4.60
2023-12-29T23:37:29.089Z,4.60
2023-12-29T23:40:16.598Z,4.60
2023-12-29T23:43:04.619Z,4.60
2023-12-29T23:45:53.021Z,4.50
2023-12-29T23:48:40.599Z,4.50
2023-12-29T23:51:28.062Z,4.50
2023-12-29T23:54:15.579Z,4.50
2023-12-29T23:57:03.462Z,4.50
2023-12-29T23:59:51.028Z,4.50
